»·PEaware :: N532D KBFI-KPDX

N532D :: KBFI-KPDX

FLIGHT INFORMATION

Flight Status: Arrived
Operator: Privately registered:
United States
More flights under this callsign
Pilot: Ed L. (12988)
Aircraft: MOONEY M-20 201 202 205 220 ATS MSE
(M20P)
More flights by this aircraft type
Origin: KBFI Boeing Field/King Co Intl
United States
Destination: KPDX Portland Intl
United States
More flights between these airports :: More routes between these airports
Route: V495 BTG NACIY
File this flight plan on PilotEdge
Remarks:
Altitude:
(Current/Filed)
10,000ft
Speed:
(Current/Filed)
150kts
Departed: 15-Mar-17 08:04 PM
Arrived: 15-Mar-17 08:54 PM
Distance/Time
Traveled:
117nm/0:50
Distance/Time
To Go:
Arrived

Flight Plot

Page will automatically refresh every two minutes.

Flight plan parsing failed; only flown route is shown


Map Options




Map Legend


Flown Route
Filed Route
Departure Airport
Arrival Airport
Navaid (VOR, NDB)
Fix

Horizontal Profiles

Position Reports

Time Latitude Longitude Heading Altitude Ground
Speed
15-Mar-17 19:57 47.522781 -122.293621 161 19ft 0kts
15-Mar-17 19:58 47.524949 -122.296851 328 19ft 25kts
15-Mar-17 19:59 47.528917 -122.298102 335 19ft 23kts
15-Mar-17 20:00 47.534290 -122.303372 338 19ft 19kts
15-Mar-17 20:01 47.540401 -122.309077 292 19ft 15kts
15-Mar-17 20:02 47.540628 -122.309601 322 19ft 0kts
15-Mar-17 20:03 47.540639 -122.309614 322 19ft 4kts
15-Mar-17 20:04 47.540713 -122.310685 236 19ft 0kts
15-Mar-17 20:05 47.536854 -122.308538 150 19ft 76kts
15-Mar-17 20:06 47.511834 -122.291184 152 855ft 101kts
15-Mar-17 20:07 47.488439 -122.265799 152 1624ft 111kts
15-Mar-17 20:08 47.460107 -122.243951 152 1922ft 120kts
15-Mar-17 20:09 47.428567 -122.222961 153 1897ft 136kts
15-Mar-17 20:10 47.395760 -122.200639 170 2083ft 128kts
15-Mar-17 20:11 47.367956 -122.221283 222 2975ft 115kts
15-Mar-17 20:12 47.341242 -122.246313 218 3759ft 114kts
15-Mar-17 20:13 47.314603 -122.273017 218 4442ft 115kts
15-Mar-17 20:14 47.287376 -122.298924 216 5050ft 120kts
15-Mar-17 20:15 47.259136 -122.324253 214 5669ft 118kts
15-Mar-17 20:16 47.229096 -122.344456 188 6218ft 123kts
15-Mar-17 20:17 47.195064 -122.347424 183 6768ft 123kts
15-Mar-17 20:18 47.160844 -122.353008 190 7257ft 124kts
15-Mar-17 20:19 47.126548 -122.360493 189 7724ft 125kts
15-Mar-17 20:20 47.091736 -122.367122 187 8149ft 126kts
15-Mar-17 20:21 47.056728 -122.372152 185 8583ft 124kts
15-Mar-17 20:22 47.021872 -122.375904 183 9015ft 121kts
15-Mar-17 20:23 46.988029 -122.379286 190 9420ft 124kts
15-Mar-17 20:24 46.955267 -122.387551 193 9927ft 117kts
15-Mar-17 20:25 46.921213 -122.399110 189 10073ft 138kts
15-Mar-17 20:26 46.881442 -122.407508 186 10013ft 147kts
15-Mar-17 20:27 46.821269 -122.415959 186 9999ft 146kts
15-Mar-17 20:28 46.740630 -122.427511 184 10026ft 146kts
15-Mar-17 20:29 46.659435 -122.438145 185 10015ft 147kts
15-Mar-17 20:30 46.578905 -122.452827 183 10047ft 144kts
15-Mar-17 20:31 46.498200 -122.465305 185 10046ft 145kts
15-Mar-17 20:32 46.418329 -122.478454 182 10014ft 144kts
15-Mar-17 20:33 46.338523 -122.488687 189 9996ft 144kts
15-Mar-17 20:34 46.259220 -122.506160 185 9992ft 144kts
15-Mar-17 20:35 46.179213 -122.518197 183 9896ft 148kts
15-Mar-17 20:36 46.102059 -122.540275 213 9955ft 140kts
15-Mar-17 20:37 46.068375 -122.572502 218 9949ft 142kts
15-Mar-17 20:38 46.036538 -122.604745 214 10013ft 140kts
15-Mar-17 20:39 46.002896 -122.634253 216 10026ft 140kts
15-Mar-17 20:40 45.971398 -122.668256 216 10012ft 142kts
15-Mar-17 20:41 45.937513 -122.697742 209 10012ft 143kts
15-Mar-17 20:42 45.904326 -122.728443 215 10031ft 140kts
15-Mar-17 20:43 45.871510 -122.758112 216 9226ft 139kts
15-Mar-17 20:44 45.837864 -122.787208 213 8227ft 141kts
15-Mar-17 20:45 45.803667 -122.814343 215 7096ft 140kts
15-Mar-17 20:46 45.771884 -122.844525 217 6025ft 136kts
15-Mar-17 20:47 45.739669 -122.871065 181 4982ft 137kts
15-Mar-17 20:48 45.708281 -122.847086 146 4315ft 124kts
15-Mar-17 20:49 45.677807 -122.822373 145 3594ft 122kts
15-Mar-17 20:50 45.657739 -122.784877 119 3068ft 126kts
15-Mar-17 20:51 45.641189 -122.739207 114 2143ft 128kts
15-Mar-17 20:52 45.624987 -122.697789 116 1272ft 110kts
15-Mar-17 20:53 45.609733 -122.658790 114 755ft 116kts
15-Mar-17 20:54 45.596402 -122.624761 113 129ft 79kts
15-Mar-17 20:55 45.589232 -122.605255 55 31ft 11kts
15-Mar-17 20:56 45.589581 -122.604714 44 31ft 11kts
15-Mar-17 20:57 45.593300 -122.599318 45 31ft 16kts

Navigation Log

Ident Type
Flight plan parsing failed, navigation log unavailable